Terminal Aerodrome Forecast
Issued by NWS Huntsville, AL

Home | Current Version | Previous Version | Text Only | Print | Product List | Glossary On
Versions: 1 2 3 4 5 6 7 8 9 10 11 12
000
FTUS44 KHUN 181145
TAFHSV
TAF
KHSV 181145Z 1812/1912 11007KT P6SM BKN035 BKN080 OVC250
     FM181400 09009KT P6SM -RA BKN025 BKN040 OVC070
     FM182200 05008KT P6SM BKN035 BKN080 OVC250
     FM190400 02007KT P6SM SCT025 SCT040 BKN250=

USA.gov is the U.S. government's official web portal to all federal, state and local government web resources and services.